Time;durP1;ratioP1;P1;durP2;ratioP2;P2;SDS_P1;SDS_P2;PMS_P1;PMS_P2;Temp;Humidity;BMP_temperature;BMP_pressure;BME280_temperature;BME280_humidity;BME280_pressure;Samples;Min_cycle;Max_cycle;Signal;HPM_P1;HPM_P2
2022/07/27 00:01:25;;;;;;;;;28.40;27.60;;;;;;;;5248634;28;8783;-72
2022/07/27 00:03:56;;;;;;;;;50.40;42.40;;;;;;;;5230789;28;9586;-73
2022/07/27 00:06:46;;;;;;;;;15.25;15.25;;;;;;;;5248872;28;8795;-73
2022/07/27 00:09:18;;;;;;;;;11.25;11.25;;;;;;;;5247377;28;8787;-73
2022/07/27 00:11:49;;;;;;;;;8.75;8.50;;;;;;;;5233174;28;8795;-74
2022/07/27 00:14:20;;;;;;;;;7.25;7.25;;;;;;;;5239449;28;8837;-74
2022/07/27 00:16:51;;;;;;;;;3.50;3.50;;;;;;;;5259226;28;8775;-74
2022/07/27 00:19:22;;;;;;;;;2.75;2.75;;;;;;;;5264985;28;8792;-74
2022/07/27 00:21:53;;;;;;;;;3.00;3.00;;;;;;;;5255752;28;9326;-74
2022/07/27 00:24:25;;;;;;;;;3.00;3.00;;;;;;;;5252346;28;8812;-72
2022/07/27 00:26:56;;;;;;;;;3.00;3.00;;;;;;;;5268562;28;8907;-73
2022/07/27 00:29:27;;;;;;;;;2.75;2.75;;;;;;;;5251401;28;8793;-74
2022/07/27 00:31:58;;;;;;;;;2.50;2.50;;;;;;;;5251012;28;8808;-73
2022/07/27 00:34:47;;;;;;;;;4.00;4.00;;;;;;;;5241836;28;8819;-74
2022/07/27 00:37:18;;;;;;;;;2.50;2.50;;;;;;;;5230613;28;8783;-73
2022/07/27 00:39:49;;;;;;;;;2.25;2.25;;;;;;;;5255739;28;9573;-73
2022/07/27 00:42:26;;;;;;;;;3.50;3.50;;;;;;;;5234553;28;8781;-74
2022/07/27 00:45:16;;;;;;;;;2.25;2.25;;;;;;;;5253142;28;8792;-74
2022/07/27 00:47:47;;;;;;;;;3.50;3.50;;;;;;;;5267897;28;8810;-74
2022/07/27 00:50:18;;;;;;;;;4.00;4.00;;;;;;;;5267625;28;8800;-74
2022/07/27 00:52:49;;;;;;;;;2.75;2.75;;;;;;;;5266850;28;8877;-74
2022/07/27 00:55:20;;;;;;;;;2.25;2.25;;;;;;;;5233829;28;8812;-74
2022/07/27 00:57:51;;;;;;;;;4.25;4.25;;;;;;;;5250332;28;9568;-74
2022/07/27 01:00:22;;;;;;;;;3.00;3.00;;;;;;;;5250986;28;8792;-74
2022/07/27 01:02:53;;;;;;;;;5.00;5.00;;;;;;;;5250668;28;8788;-72
2022/07/27 01:05:43;;;;;;;;;4.25;4.25;;;;;;;;5252949;28;8803;-72
2022/07/27 01:08:14;;;;;;;;;2.50;2.50;;;;;;;;5250412;28;9485;-72
2022/07/27 01:10:46;;;;;;;;;3.75;3.75;;;;;;;;5264266;28;8764;-72
2022/07/27 01:13:36;;;;;;;;;3.00;3.00;;;;;;;;5246118;28;8811;-72
2022/07/27 01:16:07;;;;;;;;;3.00;3.00;;;;;;;;5247283;28;8779;-72
2022/07/27 01:18:57;;;;;;;;;3.25;3.25;;;;;;;;5246292;28;9593;-72
2022/07/27 01:21:32;;;;;;;;;0.75;0.75;;;;;;;;5229377;28;8929;-72
2022/07/27 01:24:03;;;;;;;;;2.50;2.50;;;;;;;;5245843;28;8807;-72
2022/07/27 01:26:35;;;;;;;;;2.00;2.00;;;;;;;;5239484;28;8835;-72
2022/07/27 01:29:06;;;;;;;;;2.50;2.50;;;;;;;;5267645;28;8788;-73
2022/07/27 01:31:56;;;;;;;;;3.00;3.00;;;;;;;;5246062;28;8783;-74
2022/07/27 01:34:27;;;;;;;;;4.00;4.00;;;;;;;;5229259;28;8810;-72
2022/07/27 01:37:02;;;;;;;;;4.00;4.00;;;;;;;;5231930;28;8799;-74
2022/07/27 01:39:33;;;;;;;;;3.75;3.75;;;;;;;;5245869;28;8795;-74
2022/07/27 01:42:04;;;;;;;;;4.50;4.50;;;;;;;;5245761;28;9563;-74
2022/07/27 01:44:35;;;;;;;;;13.00;13.00;;;;;;;;5229006;28;8783;-73
2022/07/27 01:47:06;;;;;;;;;15.33;15.33;;;;;;;;5228848;28;8798;-73
2022/07/27 01:49:37;;;;;;;;;7.50;7.50;;;;;;;;5228675;28;11518;-74
2022/07/27 01:52:08;;;;;;;;;7.00;7.00;;;;;;;;5228756;28;8845;-74
2022/07/27 01:54:39;;;;;;;;;51.00;43.00;;;;;;;;5228578;28;10642;-74
2022/07/27 01:57:10;;;;;;;;;12.75;12.75;;;;;;;;5245452;28;8767;-74
2022/07/27 01:59:41;;;;;;;;;12.00;12.00;;;;;;;;5245343;28;8775;-74
2022/07/27 02:02:14;;;;;;;;;14.00;14.00;;;;;;;;5228443;28;9729;-74
2022/07/27 02:04:45;;;;;;;;;11.25;11.25;;;;;;;;5232304;28;8786;-73
2022/07/27 02:07:16;;;;;;;;;13.33;13.33;;;;;;;;5246218;28;8956;-73
2022/07/27 02:09:47;;;;;;;;;4.00;4.00;;;;;;;;5254553;28;11198;-74
2022/07/27 02:12:36;;;;;;;;;4.25;4.25;;;;;;;;5249478;28;8935;-74
2022/07/27 02:15:28;;;;;;;;;3.00;3.00;;;;;;;;5252375;28;9570;-74
2022/07/27 02:17:59;;;;;;;;;5.00;5.00;;;;;;;;5266628;28;8788;-75
2022/07/27 02:20:30;;;;;;;;;4.50;4.50;;;;;;;;5248881;28;8812;-75
2022/07/27 02:23:02;;;;;;;;;4.00;4.00;;;;;;;;5249017;28;8785;-74
2022/07/27 02:25:34;;;;;;;;;4.00;4.00;;;;;;;;5247713;28;8787;-75
2022/07/27 02:28:06;;;;;;;;;5.00;5.00;;;;;;;;5211614;28;8821;-75
2022/07/27 02:30:37;;;;;;;;;3.50;3.25;;;;;;;;5231569;28;8776;-76
2022/07/27 02:33:08;;;;;;;;;2.50;2.50;;;;;;;;5228279;28;8892;-72
2022/07/27 02:35:39;;;;;;;;;3.00;3.00;;;;;;;;5255196;28;9526;-72
2022/07/27 02:38:10;;;;;;;;;2.75;2.75;;;;;;;;5265971;28;9581;-73
2022/07/27 02:40:41;;;;;;;;;3.75;3.75;;;;;;;;5252481;28;8868;-73
2022/07/27 02:43:12;;;;;;;;;89.40;82.40;;;;;;;;5228918;28;8853;-74
2022/07/27 02:45:43;;;;;;;;;7.00;7.00;;;;;;;;5265945;28;8784;-72
2022/07/27 02:48:14;;;;;;;;;4.00;4.00;;;;;;;;5264002;28;8951;-72
2022/07/27 02:50:45;;;;;;;;;3.75;3.75;;;;;;;;5228189;28;11422;-73
2022/07/27 02:53:16;;;;;;;;;3.00;3.00;;;;;;;;5244972;28;8823;-72
2022/07/27 02:55:47;;;;;;;;;1.75;1.75;;;;;;;;5244670;28;8945;-72
2022/07/27 02:58:18;;;;;;;;;4.33;4.33;;;;;;;;5246510;28;8898;-72
2022/07/27 03:00:50;;;;;;;;;5.00;4.75;;;;;;;;5245891;28;9288;-72
2022/07/27 03:03:21;;;;;;;;;4.25;4.25;;;;;;;;5250737;28;8791;-70
2022/07/27 03:05:52;;;;;;;;;0.00;0.00;;;;;;;;5232457;28;8773;-71
2022/07/27 03:08:23;;;;;;;;;4.75;4.75;;;;;;;;5248965;28;8954;-71
2022/07/27 03:10:54;;;;;;;;;33.40;29.60;;;;;;;;5245937;28;8787;-72
2022/07/27 03:13:25;;;;;;;;;5.50;5.50;;;;;;;;5244520;28;8919;-72
2022/07/27 03:16:14;;;;;;;;;5.00;5.00;;;;;;;;5235750;28;8827;-72
2022/07/27 03:19:05;;;;;;;;;4.25;4.25;;;;;;;;5240414;28;8833;-72
2022/07/27 03:21:36;;;;;;;;;3.00;3.00;;;;;;;;5244496;28;8796;-72
2022/07/27 03:24:06;;;;;;;;;5.33;5.33;;;;;;;;5263771;28;8815;-72
2022/07/27 03:26:37;;;;;;;;;5.50;5.50;;;;;;;;5247523;28;8800;-72
2022/07/27 03:29:08;;;;;;;;;2.67;2.67;;;;;;;;5244357;28;8801;-72
2022/07/27 03:31:39;;;;;;;;;4.67;4.67;;;;;;;;5244359;28;11469;-72
2022/07/27 03:34:10;;;;;;;;;4.00;4.00;;;;;;;;5247889;28;12311;-72
2022/07/27 03:36:41;;;;;;;;;4.25;4.25;;;;;;;;5248022;28;8779;-73
2022/07/27 03:39:13;;;;;;;;;5.00;5.00;;;;;;;;5231380;28;8783;-72
2022/07/27 03:41:44;;;;;;;;;5.00;5.00;;;;;;;;5248048;28;8836;-72
2022/07/27 03:44:15;;;;;;;;;4.50;4.50;;;;;;;;5231326;28;8779;-72
2022/07/27 03:46:46;;;;;;;;;5.25;5.25;;;;;;;;5249287;28;8991;-72
2022/07/27 03:49:36;;;;;;;;;5.25;5.25;;;;;;;;5248218;28;8829;-72
2022/07/27 03:52:07;;;;;;;;;5.00;5.00;;;;;;;;5231335;28;8796;-72
2022/07/27 03:54:37;;;;;;;;;5.00;5.00;;;;;;;;5247714;28;8807;-72
2022/07/27 03:57:08;;;;;;;;;5.33;5.33;;;;;;;;5247816;28;8779;-72
2022/07/27 03:59:39;;;;;;;;;3.67;3.67;;;;;;;;5264395;28;10931;-72
2022/07/27 04:02:10;;;;;;;;;5.25;5.25;;;;;;;;5248903;28;11417;-72
2022/07/27 04:04:41;;;;;;;;;5.33;5.33;;;;;;;;5247627;28;8818;-72
2022/07/27 04:07:12;;;;;;;;;4.00;4.00;;;;;;;;5230765;28;11008;-72
2022/07/27 04:09:43;;;;;;;;;14.67;14.67;;;;;;;;5247498;28;8987;-73
2022/07/27 04:12:14;;;;;;;;;2.00;2.00;;;;;;;;5247683;28;8921;-72
2022/07/27 04:14:44;;;;;;;;;4.00;4.00;;;;;;;;5248428;28;11378;-72
2022/07/27 04:17:15;;;;;;;;;3.50;3.50;;;;;;;;5230710;28;11577;-72
2022/07/27 04:20:05;;;;;;;;;4.00;4.00;;;;;;;;5247288;28;8786;-72
2022/07/27 04:22:36;;;;;;;;;4.00;4.00;;;;;;;;5247843;28;8767;-72
2022/07/27 04:25:07;;;;;;;;;7.00;7.00;;;;;;;;5248223;28;8795;-71
2022/07/27 04:27:38;;;;;;;;;6.00;6.00;;;;;;;;5247177;28;8814;-72
2022/07/27 04:30:11;;;;;;;;;3.25;3.25;;;;;;;;5248200;28;8807;-73
2022/07/27 04:32:42;;;;;;;;;5.25;5.25;;;;;;;;5247413;28;8755;-73
2022/07/27 04:35:13;;;;;;;;;5.00;5.00;;;;;;;;5248733;28;8815;-70
2022/07/27 04:37:44;;;;;;;;;4.25;4.25;;;;;;;;5247202;28;8782;-73
2022/07/27 04:40:15;;;;;;;;;5.00;5.00;;;;;;;;5230280;28;8864;-72
2022/07/27 04:42:46;;;;;;;;;5.00;5.00;;;;;;;;5230039;28;8790;-72
2022/07/27 04:45:17;;;;;;;;;5.00;5.00;;;;;;;;5246642;28;8825;-72
2022/07/27 04:47:48;;;;;;;;;4.50;4.50;;;;;;;;5247737;28;10779;-70
2022/07/27 04:50:18;;;;;;;;;6.00;6.00;;;;;;;;5246794;28;8771;-72
2022/07/27 04:52:49;;;;;;;;;5.50;5.50;;;;;;;;5230039;28;11467;-72
2022/07/27 04:55:20;;;;;;;;;5.50;5.50;;;;;;;;5246271;28;8775;-72
2022/07/27 04:57:51;;;;;;;;;3.75;3.75;;;;;;;;5246713;28;8802;-72
2022/07/27 05:00:22;;;;;;;;;4.50;4.50;;;;;;;;5246849;28;9427;-72
2022/07/27 05:02:53;;;;;;;;;6.00;6.00;;;;;;;;5229999;28;8910;-70
2022/07/27 05:05:24;;;;;;;;;5.25;5.25;;;;;;;;5229774;28;11423;-71
2022/07/27 05:07:55;;;;;;;;;4.75;4.75;;;;;;;;5246298;28;8858;-72
2022/07/27 05:10:26;;;;;;;;;4.00;4.00;;;;;;;;5229640;28;8804;-72
2022/07/27 05:12:57;;;;;;;;;4.25;4.25;;;;;;;;5213173;28;9509;-72
2022/07/27 05:15:28;;;;;;;;;6.75;6.75;;;;;;;;5247365;28;8775;-70
2022/07/27 05:17:59;;;;;;;;;4.75;4.75;;;;;;;;5229423;28;8811;-70
2022/07/27 05:20:30;;;;;;;;;3.67;3.67;;;;;;;;5229588;28;8775;-72
2022/07/27 05:23:01;;;;;;;;;3.00;3.00;;;;;;;;5245847;28;10273;-72
2022/07/27 05:25:32;;;;;;;;;2.25;2.25;;;;;;;;5245950;28;8802;-72
2022/07/27 05:28:04;;;;;;;;;5.50;5.50;;;;;;;;5245923;28;8822;-73
2022/07/27 05:30:35;;;;;;;;;8.25;8.25;;;;;;;;5246954;28;8787;-72
2022/07/27 05:33:06;;;;;;;;;9.00;9.00;;;;;;;;5247478;28;8876;-72
2022/07/27 05:35:55;;;;;;;;;19.75;16.25;;;;;;;;5247266;28;8953;-72
2022/07/27 05:38:26;;;;;;;;;12.75;12.50;;;;;;;;5245807;28;8787;-72
2022/07/27 05:40:57;;;;;;;;;10.25;9.75;;;;;;;;5246856;28;8783;-72
2022/07/27 05:43:28;;;;;;;;;42.00;36.00;;;;;;;;5245921;28;8791;-72
2022/07/27 05:45:59;;;;;;;;;9.00;8.50;;;;;;;;5246588;28;11044;-72
2022/07/27 05:48:30;;;;;;;;;4.50;4.50;;;;;;;;5245650;28;8809;-72
2022/07/27 05:51:01;;;;;;;;;5.25;5.25;;;;;;;;5245617;28;8775;-72
2022/07/27 05:53:33;;;;;;;;;4.00;4.00;;;;;;;;5245354;28;8822;-72
2022/07/27 05:56:06;;;;;;;;;3.25;3.25;;;;;;;;5245063;28;8787;-72
2022/07/27 05:58:37;;;;;;;;;3.75;3.75;;;;;;;;5246561;28;8809;-71
2022/07/27 06:01:09;;;;;;;;;7.00;7.00;;;;;;;;5262422;28;8788;-72
2022/07/27 06:03:40;;;;;;;;;5.00;5.00;;;;;;;;5245137;28;10425;-72
2022/07/27 06:09:00;;;;;;;;;5.00;5.00;;;;;;;;5245331;28;8799;-71
2022/07/27 06:11:31;;;;;;;;;1.50;1.50;;;;;;;;5245171;28;9564;-71
2022/07/27 06:14:21;;;;;;;;;8.25;8.25;;;;;;;;5245041;28;8807;-71
2022/07/27 06:16:52;;;;;;;;;19.50;18.50;;;;;;;;5245117;28;8797;-71
2022/07/27 06:19:23;;;;;;;;;10.25;10.00;;;;;;;;5228586;28;8779;-71
2022/07/27 06:21:54;;;;;;;;;13.75;13.75;;;;;;;;5245152;28;8921;-70
2022/07/27 06:24:25;;;;;;;;;14.75;14.75;;;;;;;;5246180;28;8933;-71
2022/07/27 06:26:56;;;;;;;;;9.50;9.50;;;;;;;;5228164;28;8799;-71
2022/07/27 06:29:27;;;;;;;;;5.00;5.00;;;;;;;;5244864;28;8848;-71
2022/07/27 06:31:58;;;;;;;;;3.00;3.00;;;;;;;;5211986;28;10259;-71
2022/07/27 06:34:29;;;;;;;;;3.00;3.00;;;;;;;;5228861;28;8933;-73
2022/07/27 06:37:00;;;;;;;;;2.00;2.00;;;;;;;;5229353;28;8783;-72
2022/07/27 06:39:32;;;;;;;;;1.00;1.00;;;;;;;;5247441;28;8912;-71
2022/07/27 06:42:03;;;;;;;;;1.00;1.00;;;;;;;;5245638;28;8798;-72
2022/07/27 06:44:34;;;;;;;;;3.00;3.00;;;;;;;;5228241;28;8783;-72
2022/07/27 06:47:09;;;;;;;;;2.25;2.25;;;;;;;;5228993;28;8771;-72
2022/07/27 06:49:40;;;;;;;;;4.00;2.50;;;;;;;;5244929;28;8795;-71
2022/07/27 06:52:11;;;;;;;;;3.00;3.00;;;;;;;;5228614;28;8787;-71
2022/07/27 06:54:42;;;;;;;;;3.50;3.50;;;;;;;;5212195;28;8803;-72
2022/07/27 06:57:14;;;;;;;;;0.00;0.00;;;;;;;;5228718;28;8798;-71
2022/07/27 06:59:45;;;;;;;;;0.00;0.00;;;;;;;;5228376;28;8783;-72
2022/07/27 07:02:16;;;;;;;;;2.25;2.25;;;;;;;;5246081;28;8772;-72
2022/07/27 07:04:47;;;;;;;;;2.25;2.25;;;;;;;;5228135;28;8779;-71
2022/07/27 07:07:19;;;;;;;;;3.67;3.67;;;;;;;;5228078;28;8771;-71
2022/07/27 07:09:50;;;;;;;;;4.75;4.75;;;;;;;;5231717;28;9531;-71
2022/07/27 07:12:21;;;;;;;;;3.00;3.00;;;;;;;;5248969;28;8771;-70
2022/07/27 07:15:12;;;;;;;;;1.75;1.75;;;;;;;;5248658;28;10029;-70
2022/07/27 07:18:04;;;;;;;;;1.00;1.00;;;;;;;;5248858;28;8841;-70
2022/07/27 07:20:35;;;;;;;;;5.25;5.25;;;;;;;;5231805;28;8779;-70
2022/07/27 07:23:07;;;;;;;;;9.75;9.75;;;;;;;;5215174;28;8787;-71
2022/07/27 07:25:38;;;;;;;;;6.75;6.75;;;;;;;;5251368;28;8790;-72
2022/07/27 07:28:09;;;;;;;;;2.00;2.00;;;;;;;;5255616;28;8825;-72
2022/07/27 07:30:40;;;;;;;;;4.25;4.25;;;;;;;;5256416;28;8917;-72
2022/07/27 07:33:29;;;;;;;;;4.00;4.00;;;;;;;;5255721;28;8871;-72
2022/07/27 07:36:04;;;;;;;;;0.00;0.00;;;;;;;;5248970;28;8811;-71
2022/07/27 07:38:54;;;;;;;;;1.00;1.00;;;;;;;;5250550;28;8779;-71
2022/07/27 07:41:25;;;;;;;;;3.50;3.50;;;;;;;;5248449;28;8801;-71
2022/07/27 07:43:56;;;;;;;;;24.00;24.00;;;;;;;;5249449;28;8779;-71
2022/07/27 07:46:28;;;;;;;;;6.00;6.00;;;;;;;;5232190;28;9032;-71
2022/07/27 07:48:59;;;;;;;;;1.25;1.25;;;;;;;;5248088;28;8783;-71
2022/07/27 07:51:30;;;;;;;;;1.00;1.00;;;;;;;;5247889;28;8928;-71
2022/07/27 07:54:02;;;;;;;;;0.00;0.00;;;;;;;;5248234;28;8825;-71
2022/07/27 07:56:32;;;;;;;;;2.00;2.00;;;;;;;;5247691;28;8818;-71
2022/07/27 07:59:04;;;;;;;;;4.00;4.00;;;;;;;;5264706;28;8806;-71
2022/07/27 08:01:35;;;;;;;;;1.75;1.75;;;;;;;;5247997;28;8807;-72
2022/07/27 08:04:06;;;;;;;;;0.00;0.00;;;;;;;;5248807;28;8789;-71
2022/07/27 08:06:55;;;;;;;;;2.25;2.25;;;;;;;;5248781;28;8878;-72
2022/07/27 08:09:27;;;;;;;;;1.50;1.50;;;;;;;;5247440;28;8802;-71
2022/07/27 08:12:16;;;;;;;;;2.75;2.75;;;;;;;;5262282;28;8880;-71
2022/07/27 08:14:47;;;;;;;;;47.75;35.75;;;;;;;;5248581;28;8811;-71
2022/07/27 08:17:18;;;;;;;;;1.75;1.75;;;;;;;;5247377;28;8781;-72
2022/07/27 08:19:49;;;;;;;;;0.33;0.33;;;;;;;;5233056;28;9537;-71
2022/07/27 08:22:20;;;;;;;;;2.00;2.00;;;;;;;;5264055;28;9150;-72
2022/07/27 08:25:10;;;;;;;;;1.75;1.75;;;;;;;;5247370;28;9706;-72
2022/07/27 08:27:41;;;;;;;;;0.75;0.75;;;;;;;;5246767;28;9092;-72
2022/07/27 08:30:12;;;;;;;;;3.00;3.00;;;;;;;;5249681;28;8925;-71
2022/07/27 08:32:46;;;;;;;;;0.00;0.00;;;;;;;;5232595;28;8783;-72
2022/07/27 08:35:18;;;;;;;;;1.25;1.25;;;;;;;;5230584;28;8803;-71
2022/07/27 08:38:08;;;;;;;;;1.00;1.00;;;;;;;;5248082;28;8818;-71
2022/07/27 08:40:39;;;;;;;;;2.00;2.00;;;;;;;;5247106;28;8809;-72
2022/07/27 08:43:11;;;;;;;;;0.00;0.00;;;;;;;;5230176;28;8799;-72
2022/07/27 08:45:44;;;;;;;;;2.00;2.00;;;;;;;;5259564;28;9479;-80
2022/07/27 08:48:16;;;;;;;;;1.00;1.00;;;;;;;;5247701;28;8936;-73
2022/07/27 08:50:47;;;;;;;;;0.00;0.00;;;;;;;;5252823;28;8808;-73
2022/07/27 08:53:20;;;;;;;;;1.00;1.00;;;;;;;;5268599;28;8963;-73
2022/07/27 08:55:52;;;;;;;;;1.75;1.75;;;;;;;;5250976;28;8780;-73
2022/07/27 08:58:22;;;;;;;;;2.00;2.00;;;;;;;;5267624;28;8772;-73
2022/07/27 09:00:54;;;;;;;;;0.25;0.25;;;;;;;;5267745;28;8939;-73
2022/07/27 09:03:44;;;;;;;;;1.50;1.50;;;;;;;;5265701;28;8792;-74
2022/07/27 09:06:35;;;;;;;;;8.00;8.00;;;;;;;;5213269;28;9441;-73
2022/07/27 09:09:05;;;;;;;;;3.00;3.00;;;;;;;;5229660;28;8909;-73
2022/07/27 09:12:03;;;;;;;;;0.00;0.00;;;;;;;;5246394;28;8782;-73
2022/07/27 09:15:02;;;;;;;;;1.75;1.75;;;;;;;;5247199;28;8829;-73
2022/07/27 09:17:52;;;;;;;;;2.75;2.75;;;;;;;;5266494;28;8903;-73
2022/07/27 09:20:23;;;;;;;;;4.00;4.00;;;;;;;;5268104;28;8985;-73
2022/07/27 09:22:54;;;;;;;;;27.67;27.67;;;;;;;;5249515;28;10307;-73
2022/07/27 09:25:29;;;;;;;;;2.00;2.00;;;;;;;;5247288;28;11529;-73
2022/07/27 09:28:00;;;;;;;;;0.75;0.75;;;;;;;;5229369;28;8799;-74
2022/07/27 09:30:31;;;;;;;;;0.00;0.00;;;;;;;;5212522;28;8767;-73
2022/07/27 09:33:04;;;;;;;;;1.00;1.00;;;;;;;;5257252;28;8792;-73
2022/07/27 09:35:35;;;;;;;;;0.75;0.75;;;;;;;;5246969;28;8810;-73
2022/07/27 09:38:23;;;;;;;;;2.50;2.50;;;;;;;;5246862;28;8771;-73
2022/07/27 09:40:58;;;;;;;;;6.25;6.25;;;;;;;;5245567;28;8899;-73
2022/07/27 09:43:29;;;;;;;;;0.00;0.00;;;;;;;;5229072;28;8798;-74
2022/07/27 09:46:05;;;;;;;;;2.00;2.00;;;;;;;;5229167;28;8802;-74
2022/07/27 09:48:54;;;;;;;;;1.50;1.50;;;;;;;;5231674;28;8795;-74
2022/07/27 09:51:25;;;;;;;;;2.33;2.33;;;;;;;;5245599;28;8787;-74
2022/07/27 09:53:57;;;;;;;;;1.00;1.00;;;;;;;;5245467;28;11414;-74
2022/07/27 09:56:30;;;;;;;;;0.00;0.00;;;;;;;;5246764;28;8794;-74
2022/07/27 09:59:02;;;;;;;;;1.67;1.67;;;;;;;;5256992;28;9567;-74
2022/07/27 10:01:34;;;;;;;;;0.00;0.00;;;;;;;;5266206;28;8792;-74
2022/07/27 10:04:06;;;;;;;;;0.25;0.25;;;;;;;;5249657;28;8793;-74
2022/07/27 10:06:36;;;;;;;;;0.25;0.25;;;;;;;;5264677;28;8796;-74
2022/07/27 10:09:07;;;;;;;;;4.00;4.00;;;;;;;;5249197;28;9540;-74
2022/07/27 10:11:39;;;;;;;;;0.75;0.75;;;;;;;;5233944;28;8791;-75
2022/07/27 10:14:10;;;;;;;;;0.00;0.00;;;;;;;;5231786;28;8818;-74
2022/07/27 10:16:41;;;;;;;;;0.25;0.25;;;;;;;;5232922;28;8822;-73
2022/07/27 10:19:29;;;;;;;;;0.25;0.25;;;;;;;;5262351;28;9553;-73
2022/07/27 10:22:00;;;;;;;;;1.25;1.25;;;;;;;;5245087;28;8815;-73
2022/07/27 10:24:57;;;;;;;;;0.50;0.50;;;;;;;;5231178;28;8799;-73
2022/07/27 10:27:28;;;;;;;;;0.00;0.00;;;;;;;;5245386;28;8791;-74
2022/07/27 10:29:59;;;;;;;;;0.25;0.25;;;;;;;;5231697;28;9518;-74
2022/07/27 10:32:31;;;;;;;;;0.00;0.00;;;;;;;;5245235;28;8790;-74
2022/07/27 10:35:02;;;;;;;;;0.00;0.00;;;;;;;;5228190;28;8819;-74
2022/07/27 10:37:34;;;;;;;;;0.00;0.00;;;;;;;;5245650;28;8799;-73
2022/07/27 10:40:51;;;;;;;;;0.00;0.00;;;;;;;;5228346;28;8794;-74
2022/07/27 10:43:10;;;;;;;;;0.00;0.00;;;;;;;;5220400;28;8791;-74
2022/07/27 10:45:45;;;;;;;;;0.00;0.00;;;;;;;;5251576;28;8838;-74
2022/07/27 10:48:38;;;;;;;;;0.00;0.00;;;;;;;;5253246;28;8781;-74
2022/07/27 10:51:09;;;;;;;;;0.00;0.00;;;;;;;;5248927;28;8791;-74
2022/07/27 10:53:41;;;;;;;;;0.00;0.00;;;;;;;;5235427;28;8813;-73
2022/07/27 10:56:12;;;;;;;;;0.00;0.00;;;;;;;;5249165;28;9563;-73
2022/07/27 10:58:44;;;;;;;;;0.00;0.00;;;;;;;;5249059;28;8779;-73
2022/07/27 11:01:15;;;;;;;;;0.00;0.00;;;;;;;;5248952;28;8782;-72
2022/07/27 11:03:51;;;;;;;;;0.00;0.00;;;;;;;;5232228;28;8809;-72
2022/07/27 11:06:24;;;;;;;;;0.00;0.00;;;;;;;;5257042;28;8796;-73
2022/07/27 11:08:55;;;;;;;;;0.00;0.00;;;;;;;;5248410;28;8822;-76
2022/07/27 11:11:26;;;;;;;;;0.00;0.00;;;;;;;;5248777;28;8768;-76
2022/07/27 11:13:57;;;;;;;;;0.00;0.00;;;;;;;;5235760;28;8827;-74
2022/07/27 11:16:29;;;;;;;;;0.00;0.00;;;;;;;;5232070;28;8807;-76
2022/07/27 11:19:04;;;;;;;;;0.00;0.00;;;;;;;;5248421;28;8767;-76
2022/07/27 11:21:37;;;;;;;;;0.00;0.00;;;;;;;;5232233;28;8849;-75
2022/07/27 11:24:12;;;;;;;;;0.00;0.00;;;;;;;;5248599;28;8945;-75
2022/07/27 11:26:44;;;;;;;;;0.00;0.00;;;;;;;;5248251;28;8811;-75
2022/07/27 11:29:16;;;;;;;;;0.00;0.00;;;;;;;;5259547;28;8800;-75
2022/07/27 11:31:50;;;;;;;;;0.00;0.00;;;;;;;;5252525;28;8781;-75
2022/07/27 11:34:28;;;;;;;;;0.00;0.00;;;;;;;;5269483;28;8847;-77
2022/07/27 11:37:02;;;;;;;;;0.00;0.00;;;;;;;;5250123;28;8803;-75
2022/07/27 11:39:33;;;;;;;;;0.00;0.00;;;;;;;;5248183;28;8795;-74
2022/07/27 11:42:04;;;;;;;;;0.00;0.00;;;;;;;;5248101;28;8771;-76
2022/07/27 11:44:41;;;;;;;;;0.00;0.00;;;;;;;;5248192;28;8801;-75
2022/07/27 11:47:16;;;;;;;;;0.00;0.00;;;;;;;;5231606;28;8795;-75
2022/07/27 11:50:07;;;;;;;;;0.00;0.00;;;;;;;;5256072;28;9527;-75
2022/07/27 11:52:38;;;;;;;;;0.00;0.00;;;;;;;;5252373;28;8796;-75
2022/07/27 11:55:09;;;;;;;;;2.50;2.50;;;;;;;;5243657;28;8907;-75
2022/07/27 11:57:41;;;;;;;;;2.50;2.50;;;;;;;;5249125;28;9625;-74
2022/07/27 12:00:13;;;;;;;;;4.75;4.75;;;;;;;;5231216;28;8779;-76
2022/07/27 12:02:50;;;;;;;;;2.00;2.00;;;;;;;;5247919;28;8783;-74
2022/07/27 12:05:21;;;;;;;;;2.00;2.00;;;;;;;;5247887;28;8818;-75
2022/07/27 12:08:11;;;;;;;;;3.50;3.50;;;;;;;;5247971;28;8802;-75
2022/07/27 12:10:57;;;;;;;;;0.75;0.75;;;;;;;;5258787;28;8809;-75
2022/07/27 12:13:32;;;;;;;;;0.00;0.00;;;;;;;;5231343;28;8811;-75
2022/07/27 12:16:03;;;;;;;;;0.00;0.00;;;;;;;;5231178;28;8810;-75
2022/07/27 12:18:42;;;;;;;;;0.25;0.25;;;;;;;;5264107;28;9542;-75
2022/07/27 12:21:17;;;;;;;;;0.00;0.00;;;;;;;;5247279;28;8802;-75
2022/07/27 12:23:49;;;;;;;;;0.00;0.00;;;;;;;;5231026;28;8941;-75
2022/07/27 12:26:21;;;;;;;;;0.00;0.00;;;;;;;;5251241;28;8789;-75
2022/07/27 12:29:08;;;;;;;;;3.75;3.75;;;;;;;;5268268;28;8780;-74
2022/07/27 12:31:46;;;;;;;;;0.00;0.00;;;;;;;;5251176;28;9623;-74
2022/07/27 12:34:17;;;;;;;;;0.00;0.00;;;;;;;;5261658;28;9510;-74
2022/07/27 12:36:48;;;;;;;;;0.00;0.00;;;;;;;;5230287;28;8848;-74
2022/07/27 12:39:40;;;;;;;;;0.50;0.50;;;;;;;;5232838;28;8784;-74
2022/07/27 12:42:34;;;;;;;;;0.00;0.00;;;;;;;;5246957;28;8806;-75
2022/07/27 12:45:15;;;;;;;;;0.75;0.75;;;;;;;;5246937;28;8799;-76
2022/07/27 12:47:46;;;;;;;;;0.00;0.00;;;;;;;;5230785;28;8891;-75
2022/07/27 12:50:25;;;;;;;;;1.00;1.00;;;;;;;;5241341;28;8823;-75
2022/07/27 12:52:56;;;;;;;;;0.00;0.00;;;;;;;;5233917;28;8790;-75
2022/07/27 12:55:27;;;;;;;;;0.00;0.00;;;;;;;;5248739;28;8868;-74
2022/07/27 12:57:58;;;;;;;;;0.00;0.00;;;;;;;;5217603;28;8791;-75
2022/07/27 13:00:29;;;;;;;;;0.00;0.00;;;;;;;;5229928;28;8771;-74
2022/07/27 13:03:01;;;;;;;;;0.50;0.50;;;;;;;;5229706;28;8819;-75
2022/07/27 13:05:50;;;;;;;;;0.00;0.00;;;;;;;;5231454;28;9506;-74
2022/07/27 13:08:21;;;;;;;;;0.00;0.00;;;;;;;;5250516;28;8829;-74
2022/07/27 13:10:52;;;;;;;;;0.00;0.00;;;;;;;;5268484;28;8776;-74
2022/07/27 13:13:23;;;;;;;;;0.00;0.00;;;;;;;;5267154;28;8807;-74
2022/07/27 13:15:54;;;;;;;;;0.25;0.25;;;;;;;;5250785;28;8800;-75
2022/07/27 13:18:25;;;;;;;;;0.00;0.00;;;;;;;;5267232;28;8773;-74
2022/07/27 13:20:56;;;;;;;;;0.00;0.00;;;;;;;;5267053;28;8807;-75
2022/07/27 13:23:28;;;;;;;;;0.00;0.00;;;;;;;;5228895;28;9565;-75
2022/07/27 13:25:59;;;;;;;;;1.00;1.00;;;;;;;;5249617;28;8895;-75
2022/07/27 13:28:30;;;;;;;;;3.00;3.00;;;;;;;;5257441;28;8933;-76
2022/07/27 13:31:01;;;;;;;;;1.00;1.00;;;;;;;;5246219;28;10068;-76
2022/07/27 13:33:32;;;;;;;;;1.00;1.00;;;;;;;;5246044;28;11544;-75
2022/07/27 13:36:06;;;;;;;;;1.00;1.00;;;;;;;;5246082;28;8775;-75
2022/07/27 13:38:37;;;;;;;;;0.00;0.00;;;;;;;;5229733;28;9553;-75
2022/07/27 13:41:08;;;;;;;;;0.50;0.50;;;;;;;;5229501;28;8775;-76
2022/07/27 13:43:38;;;;;;;;;0.00;0.00;;;;;;;;5232904;28;8823;-76
2022/07/27 13:46:09;;;;;;;;;0.00;0.00;;;;;;;;5261448;28;8812;-75
2022/07/27 13:48:40;;;;;;;;;0.00;0.00;;;;;;;;5233406;28;8865;-76
2022/07/27 13:51:11;;;;;;;;;0.00;0.00;;;;;;;;5250006;28;9499;-76
2022/07/27 13:53:42;;;;;;;;;0.00;0.00;;;;;;;;5266691;28;9557;-75
2022/07/27 13:56:33;;;;;;;;;0.00;0.00;;;;;;;;5253147;28;9653;-76
2022/07/27 13:59:05;;;;;;;;;0.00;0.00;;;;;;;;5237323;28;8784;-75
2022/07/27 14:01:39;;;;;;;;;0.00;0.00;;;;;;;;5229692;28;8811;-76
2022/07/27 14:04:11;;;;;;;;;0.00;0.00;;;;;;;;5231619;28;8783;-76
2022/07/27 14:06:44;;;;;;;;;0.00;0.00;;;;;;;;5226490;28;8799;-76
2022/07/27 14:09:15;;;;;;;;;0.00;0.00;;;;;;;;5229024;28;8778;-76
2022/07/27 14:11:45;;;;;;;;;0.00;0.00;;;;;;;;5248468;28;8843;-76
2022/07/27 14:14:16;;;;;;;;;0.00;0.00;;;;;;;;5232773;28;8826;-73
2022/07/27 14:17:06;;;;;;;;;1.00;1.00;;;;;;;;5266314;28;8773;-76
2022/07/27 14:19:37;;;;;;;;;0.00;0.00;;;;;;;;5249414;28;8783;-74
2022/07/27 14:22:09;;;;;;;;;0.00;0.00;;;;;;;;5244253;28;8799;-75
2022/07/27 14:24:40;;;;;;;;;0.00;0.00;;;;;;;;5245416;28;8811;-74
2022/07/27 14:27:11;;;;;;;;;0.00;0.00;;;;;;;;5228460;28;8975;-75
2022/07/27 14:29:42;;;;;;;;;0.00;0.00;;;;;;;;5245230;28;9641;-76
2022/07/27 14:32:31;;;;;;;;;0.00;0.00;;;;;;;;5231010;28;8822;-79
2022/07/27 14:35:04;;;;;;;;;0.00;0.00;;;;;;;;5229322;28;8892;-75
2022/07/27 14:37:35;;;;;;;;;0.00;0.00;;;;;;;;5249318;28;8789;-78
2022/07/27 14:40:07;;;;;;;;;0.00;0.00;;;;;;;;5249427;28;8796;-76
2022/07/27 14:42:38;;;;;;;;;18.50;18.50;;;;;;;;5243075;28;8795;-77
2022/07/27 14:45:10;;;;;;;;;0.50;0.50;;;;;;;;5229773;28;8783;-78
2022/07/27 14:47:41;;;;;;;;;0.50;0.50;;;;;;;;5230682;28;8771;-77
2022/07/27 14:50:12;;;;;;;;;1.00;1.00;;;;;;;;5245427;28;8779;-75
2022/07/27 14:52:43;;;;;;;;;0.00;0.00;;;;;;;;5250642;28;8775;-78
2022/07/27 14:55:34;;;;;;;;;2.00;2.00;;;;;;;;5253122;28;8791;-76
2022/07/27 14:58:05;;;;;;;;;0.50;0.50;;;;;;;;5272934;28;8775;-76
2022/07/27 15:00:54;;;;;;;;;9.75;9.75;;;;;;;;5251135;28;8816;-77
2022/07/27 15:03:25;;;;;;;;;0.00;0.00;;;;;;;;5228958;28;8933;-75
2022/07/27 15:05:56;;;;;;;;;0.00;0.00;;;;;;;;5249767;28;8768;-75
2022/07/27 15:08:28;;;;;;;;;0.25;0.25;;;;;;;;5246863;28;8797;-75
2022/07/27 15:10:59;;;;;;;;;0.00;0.00;;;;;;;;5264087;28;8784;-76
2022/07/27 15:13:49;;;;;;;;;2.50;2.50;;;;;;;;5249782;28;9663;-75
2022/07/27 15:16:20;;;;;;;;;1.75;1.75;;;;;;;;5247540;28;8792;-76
2022/07/27 15:18:51;;;;;;;;;1.75;1.75;;;;;;;;5242447;28;8892;-76
2022/07/27 15:21:22;;;;;;;;;0.00;0.00;;;;;;;;5241196;28;8806;-74
2022/07/27 15:23:54;;;;;;;;;0.00;0.00;;;;;;;;5226980;28;8822;-75
2022/07/27 15:26:25;;;;;;;;;0.00;0.00;;;;;;;;5243880;28;8912;-75
2022/07/27 15:29:14;;;;;;;;;0.00;0.00;;;;;;;;5244088;28;8915;-74
2022/07/27 15:31:45;;;;;;;;;0.00;0.00;;;;;;;;5263148;28;8791;-75
2022/07/27 15:34:16;;;;;;;;;1.50;1.50;;;;;;;;5229900;28;11007;-75
2022/07/27 15:36:47;;;;;;;;;2.00;2.00;;;;;;;;5230048;28;8815;-74